createdAt,value
2019-03-04T00:01:48.758Z,32.53
2019-03-04T00:04:18.115Z,28.07
2019-03-04T00:06:47.461Z,29.00
2019-03-04T00:09:16.845Z,34.33
2019-03-04T00:11:46.205Z,38.07
2019-03-04T00:14:15.541Z,39.03
2019-03-04T00:16:44.908Z,39.90
2019-03-04T00:19:14.265Z,42.03
2019-03-04T00:21:43.633Z,43.60
2019-03-04T00:24:13.002Z,44.17
2019-03-04T00:26:42.396Z,43.93
2019-03-04T00:29:11.771Z,44.60
2019-03-04T00:31:41.148Z,42.47
2019-03-04T00:34:10.654Z,41.03
2019-03-04T00:36:40.024Z,38.70
2019-03-04T00:39:11.659Z,33.80
2019-03-04T00:41:40.990Z,35.43
2019-03-04T00:44:10.328Z,39.80
2019-03-04T00:46:39.687Z,34.87
2019-03-04T00:49:09.063Z,35.57
2019-03-04T00:51:38.442Z,34.77
2019-03-04T00:54:07.801Z,32.20
2019-03-04T00:56:37.169Z,36.53
2019-03-04T00:59:06.518Z,31.80
2019-03-04T01:01:35.893Z,32.53
2019-03-04T01:04:05.377Z,35.80
2019-03-04T01:06:34.729Z,34.17
2019-03-04T01:09:04.781Z,34.50
2019-03-04T01:11:34.137Z,33.73
2019-03-04T01:14:03.475Z,28.63
2019-03-04T01:16:32.823Z,34.03
2019-03-04T01:19:02.204Z,30.77
2019-03-04T01:21:31.576Z,30.90
2019-03-04T01:24:00.947Z,28.57
2019-03-04T01:26:30.304Z,30.77
2019-03-04T01:28:59.689Z,37.13
2019-03-04T01:31:29.078Z,31.03
2019-03-04T01:33:58.408Z,31.53
2019-03-04T01:36:27.809Z,27.43
2019-03-04T01:38:57.168Z,29.03
2019-03-04T01:41:26.635Z,29.80
2019-03-04T01:43:56.019Z,28.53
2019-03-04T01:46:25.373Z,28.17
2019-03-04T01:48:54.749Z,26.80
2019-03-04T01:51:24.116Z,28.67
2019-03-04T01:53:53.480Z,26.20
2019-03-04T01:56:22.852Z,31.10
2019-03-04T01:58:52.230Z,29.40
2019-03-04T02:01:21.590Z,24.63
2019-03-04T02:03:50.958Z,27.07
2019-03-04T02:06:20.364Z,26.10
2019-03-04T02:08:49.721Z,27.03
2019-03-04T02:11:19.061Z,26.67
2019-03-04T02:13:48.444Z,23.83
2019-03-04T02:16:17.771Z,26.57
2019-03-04T02:18:47.148Z,29.83
2019-03-04T02:21:16.585Z,23.63
2019-03-04T02:23:45.942Z,26.67
2019-03-04T02:26:29.571Z,25.37
2019-03-04T02:28:58.928Z,25.40
2019-03-04T02:31:28.278Z,23.70
2019-03-04T02:33:57.633Z,23.47
2019-03-04T02:36:27.029Z,24.13
2019-03-04T02:38:56.377Z,22.60
2019-03-04T02:41:25.733Z,30.60
2019-03-04T02:43:55.108Z,22.23
2019-03-04T02:46:24.462Z,24.37
2019-03-04T02:48:53.817Z,22.03
2019-03-04T02:51:23.213Z,23.97
2019-03-04T02:53:52.577Z,23.47
2019-03-04T02:56:21.951Z,20.57
2019-03-04T02:58:51.350Z,17.87
2019-03-04T03:01:20.767Z,23.03
2019-03-04T03:03:50.296Z,23.50
2019-03-04T03:06:19.706Z,23.17
2019-03-04T03:08:49.071Z,23.80
2019-03-04T03:11:18.480Z,24.33
2019-03-04T03:13:47.874Z,25.07
2019-03-04T03:16:17.224Z,25.40
2019-03-04T03:18:46.642Z,27.10
2019-03-04T03:21:16.021Z,23.83
2019-03-04T03:23:45.366Z,24.90
2019-03-04T03:26:14.720Z,25.93
2019-03-04T03:28:44.115Z,24.67
2019-03-04T03:31:13.518Z,21.07
2019-03-04T03:33:42.925Z,25.87
2019-03-04T03:36:12.298Z,25.17
2019-03-04T03:38:41.626Z,22.50
2019-03-04T03:41:10.994Z,21.60
2019-03-04T03:43:40.321Z,24.23
2019-03-04T03:46:09.676Z,21.37
2019-03-04T03:48:39.056Z,19.60
2019-03-04T03:51:08.425Z,20.77
2019-03-04T03:53:37.769Z,20.23
2019-03-04T03:56:07.144Z,18.77
2019-03-04T03:58:36.670Z,19.63
2019-03-04T04:01:06.080Z,23.43
2019-03-04T04:03:35.486Z,21.73
2019-03-04T04:06:04.838Z,23.83
2019-03-04T04:08:34.178Z,19.43
2019-03-04T04:11:03.549Z,19.33
2019-03-04T04:13:32.877Z,17.93
2019-03-04T04:16:02.212Z,17.47
2019-03-04T04:18:31.552Z,19.47
2019-03-04T04:21:00.909Z,20.17
2019-03-04T04:23:30.274Z,17.97
2019-03-04T04:25:59.685Z,17.67
2019-03-04T04:28:30.545Z,18.50
2019-03-04T04:30:59.890Z,18.30
2019-03-04T04:33:29.258Z,18.67
2019-03-04T04:35:58.674Z,18.37
2019-03-04T04:38:28.061Z,19.20
2019-03-04T04:40:57.450Z,18.27
2019-03-04T04:43:26.802Z,17.93
2019-03-04T04:45:56.181Z,20.83
2019-03-04T04:48:25.950Z,20.03
2019-03-04T04:50:55.345Z,22.73
2019-03-04T04:53:24.709Z,22.30
2019-03-04T04:55:54.038Z,20.53
2019-03-04T04:58:23.459Z,20.03
2019-03-04T05:00:52.815Z,22.17
2019-03-04T05:03:22.200Z,36.70
2019-03-04T05:05:51.567Z,27.03
2019-03-04T05:08:20.932Z,22.03
2019-03-04T05:10:50.307Z,21.33
2019-03-04T05:13:19.671Z,20.57
2019-03-04T05:15:49.088Z,27.93
2019-03-04T05:18:18.521Z,29.47
2019-03-04T05:20:47.866Z,26.93
2019-03-04T05:23:17.228Z,27.87
2019-03-04T05:25:46.597Z,32.63
2019-03-04T05:28:15.965Z,26.00
2019-03-04T05:30:45.349Z,26.00
2019-03-04T05:33:14.732Z,74.27
2019-03-04T05:35:44.106Z,33.73
2019-03-04T05:38:13.471Z,34.10
2019-03-04T05:40:42.872Z,31.80
2019-03-04T05:43:12.235Z,29.57
2019-03-04T05:45:41.640Z,27.07
2019-03-04T05:48:10.993Z,28.13
2019-03-04T05:50:40.375Z,27.17
2019-03-04T05:53:09.729Z,28.90
2019-03-04T05:55:39.096Z,29.03
2019-03-04T05:58:08.466Z,29.80
2019-03-04T06:00:40.206Z,29.47
2019-03-04T06:03:10.294Z,27.27
2019-03-04T06:05:39.648Z,29.93
2019-03-04T06:08:09.800Z,28.53
2019-03-04T06:10:39.151Z,30.83
2019-03-04T06:13:08.529Z,31.07
2019-03-04T06:15:37.122Z,30.87
2019-03-04T06:18:06.509Z,27.40
2019-03-04T06:20:35.884Z,28.20
2019-03-04T06:23:05.259Z,30.83
2019-03-04T06:25:34.625Z,30.40
2019-03-04T06:28:04.017Z,30.33
2019-03-04T06:30:33.480Z,28.33
2019-03-04T06:33:02.856Z,29.80
2019-03-04T06:35:32.220Z,27.43
2019-03-04T06:38:01.694Z,29.67
2019-03-04T06:40:31.099Z,35.23
2019-03-04T06:43:00.484Z,38.07
2019-03-04T06:45:29.859Z,33.77
2019-03-04T06:47:59.217Z,35.00
2019-03-04T06:51:03.618Z,28.10
2019-03-04T06:53:54.541Z,32.03
2019-03-04T06:56:48.207Z,27.00
2019-03-04T06:59:46.085Z,28.87
2019-03-04T07:02:15.764Z,32.67
2019-03-04T07:05:32.907Z,34.67
2019-03-04T07:08:02.288Z,31.60
2019-03-04T07:10:32.493Z,27.97
2019-03-04T07:13:01.875Z,27.53
2019-03-04T07:15:31.277Z,28.80
2019-03-04T07:18:00.696Z,29.30
2019-03-04T07:20:30.055Z,25.10
2019-03-04T07:22:59.440Z,28.20
2019-03-04T07:25:28.776Z,27.53
2019-03-04T07:27:58.136Z,25.23
2019-03-04T07:30:27.493Z,24.67
2019-03-04T07:32:56.894Z,26.47
2019-03-04T07:35:26.252Z,27.70
2019-03-04T07:38:12.771Z,29.20
2019-03-04T07:40:42.165Z,27.00
2019-03-04T07:43:11.544Z,26.03
2019-03-04T07:45:40.920Z,28.23
2019-03-04T07:48:10.303Z,28.23
2019-03-04T07:50:39.687Z,27.10
2019-03-04T07:53:09.060Z,26.53
2019-03-04T07:55:38.438Z,24.33
2019-03-04T07:58:07.810Z,24.10
2019-03-04T08:00:37.185Z,24.97
2019-03-04T08:03:06.556Z,26.43
2019-03-04T08:05:35.964Z,26.57
2019-03-04T08:08:05.356Z,26.13
2019-03-04T08:11:01.178Z,26.20
2019-03-04T08:13:40.384Z,24.67
2019-03-04T08:16:10.492Z,23.53
2019-03-04T08:18:39.831Z,21.53
2019-03-04T08:21:09.220Z,32.47
2019-03-04T08:23:38.617Z,27.60
2019-03-04T08:26:08.592Z,22.77
2019-03-04T08:28:37.959Z,21.97
2019-03-04T08:31:07.635Z,22.63
2019-03-04T08:33:37.140Z,24.70
2019-03-04T08:36:06.586Z,20.17
2019-03-04T08:38:35.991Z,21.87
2019-03-04T08:41:05.360Z,23.50
2019-03-04T08:43:34.827Z,29.83
2019-03-04T08:46:04.194Z,32.60
2019-03-04T08:48:33.643Z,21.53
2019-03-04T08:51:03.036Z,24.43
2019-03-04T08:53:32.406Z,22.33
2019-03-04T08:56:01.786Z,23.37
2019-03-04T08:58:31.134Z,25.13
2019-03-04T09:01:00.652Z,23.17
2019-03-04T09:03:30.004Z,20.03
2019-03-04T09:05:59.388Z,20.63
2019-03-04T09:08:28.788Z,21.53
2019-03-04T09:10:58.097Z,19.80
2019-03-04T09:13:27.569Z,21.87
2019-03-04T09:15:56.938Z,23.33
2019-03-04T09:18:26.302Z,22.03
2019-03-04T09:20:55.692Z,26.37
2019-03-04T09:23:25.042Z,26.27
2019-03-04T09:26:03.119Z,26.00
2019-03-04T09:28:32.559Z,26.07
2019-03-04T09:31:01.937Z,23.63
2019-03-04T09:33:31.293Z,25.17
2019-03-04T09:36:00.670Z,30.07
2019-03-04T09:38:30.017Z,24.90
2019-03-04T09:40:59.404Z,24.90
2019-03-04T09:43:28.819Z,26.93
2019-03-04T09:45:58.171Z,29.30
2019-03-04T09:48:27.526Z,25.70
2019-03-04T09:50:56.945Z,28.93
2019-03-04T09:53:26.362Z,26.63
2019-03-04T09:55:55.763Z,30.87
2019-03-04T09:58:25.123Z,24.53
2019-03-04T10:01:17.329Z,25.33
2019-03-04T10:04:27.472Z,22.07
2019-03-04T10:07:23.714Z,24.70
2019-03-04T10:10:08.248Z,22.70
2019-03-04T10:13:30.994Z,24.03
2019-03-04T10:16:20.264Z,26.73
2019-03-04T10:19:33.796Z,21.10
2019-03-04T10:22:12.279Z,19.90
2019-03-04T10:24:58.166Z,26.57
2019-03-04T10:28:08.168Z,18.73
2019-03-04T10:31:06.665Z,21.20
2019-03-04T10:34:19.942Z,15.23
2019-03-04T10:37:19.030Z,17.40
2019-03-04T10:40:16.148Z,14.67
2019-03-04T10:43:20.583Z,14.73
2019-03-04T10:46:34.019Z,11.43
2019-03-04T10:49:03.386Z,11.10
2019-03-04T10:51:32.734Z,3.20
2019-03-04T10:54:02.059Z,3.73
2019-03-04T10:56:31.441Z,6.43
2019-03-04T10:59:00.764Z,3.17
2019-03-04T11:01:30.816Z,3.63
2019-03-04T11:04:00.252Z,4.57
2019-03-04T11:06:29.596Z,3.83
2019-03-04T11:08:59.023Z,1.90
2019-03-04T11:11:30.147Z,3.50
2019-03-04T11:13:59.429Z,2.27
2019-03-04T11:16:28.816Z,3.83
2019-03-04T11:18:58.189Z,3.33
2019-03-04T11:21:27.546Z,3.57
2019-03-04T11:23:56.926Z,3.10
2019-03-04T11:26:26.489Z,3.70
2019-03-04T11:28:55.832Z,3.83
2019-03-04T11:31:25.206Z,2.93
2019-03-04T11:33:54.581Z,2.70
2019-03-04T11:36:23.915Z,2.93
2019-03-04T11:38:57.274Z,2.70
2019-03-04T11:41:26.643Z,7.60
2019-03-04T11:43:56.021Z,2.97
2019-03-04T11:46:25.362Z,4.43
2019-03-04T11:48:54.705Z,4.03
2019-03-04T11:51:24.078Z,2.60
2019-03-04T11:53:53.432Z,2.53
2019-03-04T11:56:22.812Z,2.73
2019-03-04T11:58:52.127Z,3.63
2019-03-04T12:01:50.111Z,3.30
2019-03-04T12:04:19.487Z,2.47
2019-03-04T12:06:48.840Z,4.63
2019-03-04T12:09:18.222Z,2.90
2019-03-04T12:11:47.614Z,3.00
2019-03-04T12:14:16.985Z,4.00
2019-03-04T12:16:46.346Z,4.87
2019-03-04T12:19:15.690Z,3.80
2019-03-04T12:21:45.016Z,2.60
2019-03-04T12:24:14.424Z,3.60
2019-03-04T12:26:43.779Z,3.00
2019-03-04T12:29:13.133Z,2.93
2019-03-04T12:31:56.880Z,2.40
2019-03-04T12:34:26.249Z,4.47
2019-03-04T12:36:55.611Z,4.93
2019-03-04T12:39:24.988Z,2.67
2019-03-04T12:41:54.379Z,2.63
2019-03-04T12:44:23.737Z,3.50
2019-03-04T12:46:53.097Z,2.47
2019-03-04T12:49:22.474Z,4.13
2019-03-04T12:51:51.892Z,2.87
2019-03-04T12:54:21.269Z,3.33
2019-03-04T12:56:50.635Z,4.27
2019-03-04T12:59:20.010Z,2.90
2019-03-04T13:01:49.430Z,2.57
2019-03-04T13:04:18.779Z,4.50
2019-03-04T13:06:48.012Z,6.30
2019-03-04T13:09:17.371Z,4.70
2019-03-04T13:11:46.745Z,5.17
2019-03-04T13:14:16.099Z,4.67
2019-03-04T13:16:48.022Z,5.20
2019-03-04T13:19:20.980Z,5.33
2019-03-04T13:21:53.299Z,4.87
2019-03-04T13:24:25.454Z,4.20
2019-03-04T13:27:00.087Z,3.43
2019-03-04T13:29:31.922Z,4.77
2019-03-04T13:32:03.617Z,3.97
2019-03-04T13:34:35.564Z,4.53
2019-03-04T13:37:04.946Z,4.67
2019-03-04T13:39:34.265Z,7.23
2019-03-04T13:42:03.613Z,2.73
2019-03-04T13:44:33.107Z,3.83
2019-03-04T13:47:02.757Z,3.97
2019-03-04T13:49:32.708Z,3.83
2019-03-04T13:52:03.026Z,4.33
2019-03-04T13:54:33.004Z,2.70
2019-03-04T13:57:03.931Z,5.03
2019-03-04T13:59:37.263Z,3.53
2019-03-04T14:02:09.709Z,4.27
2019-03-04T14:04:41.413Z,4.30
2019-03-04T14:07:10.987Z,5.00
2019-03-04T14:09:40.329Z,3.43
2019-03-04T14:12:10.125Z,3.80
2019-03-04T14:14:41.701Z,5.10
2019-03-04T14:17:11.357Z,4.03
2019-03-04T14:19:40.833Z,4.17
2019-03-04T14:22:10.437Z,4.60
2019-03-04T14:24:39.872Z,6.00
2019-03-04T14:27:09.271Z,4.27
2019-03-04T14:29:38.798Z,4.13
2019-03-04T14:32:08.285Z,6.17
2019-03-04T14:34:37.726Z,3.80
2019-03-04T14:37:07.063Z,3.47
2019-03-04T14:39:36.512Z,4.30
2019-03-04T14:42:06.205Z,4.33
2019-03-04T14:44:35.563Z,5.23
2019-03-04T14:47:05.290Z,4.07
2019-03-04T14:49:44.297Z,4.50
2019-03-04T14:52:06.041Z,5.20
2019-03-04T14:54:35.820Z,4.90
2019-03-04T14:57:05.321Z,4.63
2019-03-04T14:59:35.304Z,3.53
2019-03-04T15:02:04.864Z,4.50
2019-03-04T15:04:34.449Z,3.90
2019-03-04T15:07:04.053Z,4.93
2019-03-04T15:09:33.431Z,3.37
2019-03-04T15:12:02.940Z,4.87
2019-03-04T15:14:32.274Z,3.57
2019-03-04T15:17:03.530Z,5.73
2019-03-04T15:19:32.831Z,4.73
2019-03-04T15:22:02.435Z,3.97
2019-03-04T15:24:31.831Z,6.10
2019-03-04T15:27:01.256Z,3.73
2019-03-04T15:29:30.748Z,6.83
2019-03-04T15:32:00.116Z,4.10
2019-03-04T15:34:29.704Z,5.77
2019-03-04T15:36:59.286Z,8.30
2019-03-04T15:39:28.782Z,5.00
2019-03-04T15:41:58.178Z,8.70
2019-03-04T15:44:27.720Z,4.20
2019-03-04T15:46:57.228Z,4.40
2019-03-04T15:49:26.718Z,9.80
2019-03-04T15:51:56.124Z,6.83
2019-03-04T15:54:25.510Z,5.00
2019-03-04T15:56:55.433Z,7.20
2019-03-04T15:59:24.997Z,3.93
2019-03-04T16:01:54.662Z,4.00
2019-03-04T16:04:24.129Z,5.27
2019-03-04T16:06:54.504Z,6.90
2019-03-04T16:09:25.637Z,5.60
2019-03-04T16:11:55.311Z,4.77
2019-03-04T16:14:25.032Z,7.50
2019-03-04T16:16:54.425Z,8.13
2019-03-04T16:19:23.985Z,5.93
2019-03-04T16:21:53.330Z,8.90
2019-03-04T16:24:22.776Z,7.07
2019-03-04T16:26:52.333Z,7.23
2019-03-04T16:29:22.078Z,10.30
2019-03-04T16:31:51.558Z,6.93
2019-03-04T16:34:20.954Z,6.47
2019-03-04T16:36:51.051Z,9.23
2019-03-04T16:39:21.334Z,8.03
2019-03-04T16:41:51.120Z,6.63
2019-03-04T16:44:21.192Z,6.77
2019-03-04T16:46:50.677Z,13.00
2019-03-04T16:49:20.378Z,12.20
2019-03-04T16:51:50.123Z,11.40
2019-03-04T16:54:19.663Z,11.67
2019-03-04T16:56:49.024Z,14.47
2019-03-04T16:59:18.626Z,11.67
2019-03-04T17:01:48.016Z,6.70
2019-03-04T17:04:17.571Z,7.10
2019-03-04T17:06:47.643Z,15.73
2019-03-04T17:09:19.257Z,15.43
2019-03-04T17:11:48.867Z,15.77
2019-03-04T17:14:19.606Z,10.33
2019-03-04T17:16:49.263Z,9.57
2019-03-04T17:19:19.066Z,11.37
2019-03-04T17:21:48.673Z,17.30
2019-03-04T17:24:18.042Z,8.77
2019-03-04T17:26:47.548Z,10.50
2019-03-04T17:29:18.092Z,13.13
2019-03-04T17:31:47.825Z,17.30
2019-03-04T17:34:17.424Z,15.17
2019-03-04T17:36:47.027Z,11.23
2019-03-04T17:39:18.037Z,12.03
2019-03-04T17:41:47.678Z,13.20
2019-03-04T17:44:22.410Z,17.13
2019-03-04T17:46:52.088Z,19.77
2019-03-04T17:49:21.631Z,18.60
2019-03-04T17:51:51.258Z,15.00
2019-03-04T17:54:20.732Z,16.30
2019-03-04T17:56:50.159Z,13.70
2019-03-04T17:59:19.563Z,11.87
2019-03-04T18:01:48.955Z,15.37
2019-03-04T18:04:18.335Z,23.53
2019-03-04T18:06:47.857Z,17.67
2019-03-04T18:09:17.359Z,15.53
2019-03-04T18:11:46.724Z,22.90
2019-03-04T18:14:16.245Z,20.97
2019-03-04T18:16:45.729Z,17.97
2019-03-04T18:19:15.175Z,27.53
2019-03-04T18:21:44.541Z,24.80
2019-03-04T18:24:14.053Z,29.43
2019-03-04T18:27:13.464Z,40.73
2019-03-04T18:30:09.370Z,29.30
2019-03-04T18:33:14.487Z,29.27
2019-03-04T18:36:15.643Z,28.13
2019-03-04T18:39:12.831Z,30.03
2019-03-04T18:42:20.674Z,11.63
2019-03-04T18:45:48.937Z,9.40
2019-03-04T18:48:41.856Z,9.20
2019-03-04T18:51:11.562Z,9.00
2019-03-04T18:53:40.944Z,10.83
2019-03-04T18:56:10.360Z,9.43
2019-03-04T18:58:39.802Z,29.23
2019-03-04T19:01:09.315Z,24.27
2019-03-04T19:03:38.743Z,27.80
2019-03-04T19:06:09.052Z,31.33
2019-03-04T19:08:38.711Z,30.20
2019-03-04T19:11:08.414Z,28.23
2019-03-04T19:13:38.272Z,23.70
2019-03-04T19:16:08.220Z,24.37
2019-03-04T19:18:37.682Z,19.00
2019-03-04T19:21:07.368Z,18.93
2019-03-04T19:23:36.770Z,21.43
2019-03-04T19:26:06.292Z,20.67
2019-03-04T19:28:35.935Z,32.40
2019-03-04T19:31:05.327Z,20.37
2019-03-04T19:33:34.807Z,20.03
2019-03-04T19:36:04.192Z,21.53
2019-03-04T19:38:33.810Z,21.83
2019-03-04T19:41:03.497Z,22.57
2019-03-04T19:43:33.339Z,22.70
2019-03-04T19:46:02.789Z,24.07
2019-03-04T19:48:32.322Z,19.50
2019-03-04T19:51:02.287Z,16.83
2019-03-04T19:53:31.710Z,17.23
2019-03-04T19:56:01.113Z,22.63
2019-03-04T19:58:30.579Z,19.23
2019-03-04T20:01:00.472Z,14.90
2019-03-04T20:03:30.385Z,16.57
2019-03-04T20:06:00.373Z,15.97
2019-03-04T20:08:30.292Z,15.97
2019-03-04T20:11:00.274Z,13.83
2019-03-04T20:13:31.243Z,14.23
2019-03-04T20:16:00.907Z,17.07
2019-03-04T20:18:31.203Z,14.90
2019-03-04T20:21:01.830Z,18.00
2019-03-04T20:23:32.643Z,14.93
2019-03-04T20:26:02.613Z,16.93
2019-03-04T20:28:32.433Z,18.90
2019-03-04T20:31:02.942Z,16.87
2019-03-04T20:33:32.966Z,18.83
2019-03-04T20:36:03.127Z,18.97
2019-03-04T20:38:36.056Z,14.97
2019-03-04T20:41:06.027Z,17.20
2019-03-04T20:43:35.720Z,17.97
2019-03-04T20:46:06.499Z,18.87
2019-03-04T20:48:36.469Z,17.90
2019-03-04T20:51:06.961Z,16.73
2019-03-04T20:53:36.599Z,14.80
2019-03-04T20:56:06.168Z,18.27
2019-03-04T20:58:36.496Z,18.40
2019-03-04T21:01:08.216Z,17.63
2019-03-04T21:03:38.737Z,15.57
2019-03-04T21:06:11.959Z,21.00
2019-03-04T21:08:41.544Z,16.03
2019-03-04T21:11:12.113Z,17.80
2019-03-04T21:13:42.939Z,17.63
2019-03-04T21:16:12.894Z,21.20
2019-03-04T21:18:42.780Z,19.03
2019-03-04T21:21:13.173Z,16.53
2019-03-04T21:23:43.604Z,14.67
2019-03-04T21:26:28.566Z,18.03
2019-03-04T21:29:38.071Z,14.37
2019-03-04T21:32:46.687Z,15.30
2019-03-04T21:35:51.389Z,12.73
2019-03-04T21:38:23.329Z,15.93
2019-03-04T21:41:11.213Z,17.63
2019-03-04T21:43:45.977Z,15.83
2019-03-04T21:46:52.011Z,21.53
2019-03-04T21:49:23.047Z,15.03
2019-03-04T21:52:20.343Z,14.83
2019-03-04T21:54:47.927Z,16.53
2019-03-04T21:57:27.175Z,15.87
2019-03-04T21:59:56.691Z,15.70
2019-03-04T22:02:39.655Z,19.13
2019-03-04T22:05:13.278Z,15.97
2019-03-04T22:07:43.193Z,14.27
2019-03-04T22:10:13.518Z,14.43
2019-03-04T22:12:44.658Z,14.70
2019-03-04T22:15:14.732Z,14.23
2019-03-04T22:17:44.232Z,15.47
2019-03-04T22:20:14.707Z,16.40
2019-03-04T22:22:44.220Z,15.43
2019-03-04T22:25:13.990Z,16.33
2019-03-04T22:27:43.357Z,13.67
2019-03-04T22:30:15.122Z,25.33
2019-03-04T22:32:44.642Z,19.40
2019-03-04T22:35:17.053Z,15.57
2019-03-04T22:37:46.065Z,14.80
2019-03-04T22:40:17.226Z,14.90
2019-03-04T22:42:46.576Z,13.80
2019-03-04T22:45:17.629Z,15.80
2019-03-04T22:47:47.396Z,17.17
2019-03-04T22:50:17.303Z,17.67
2019-03-04T22:52:46.685Z,15.23
2019-03-04T22:55:18.637Z,15.33
2019-03-04T22:57:48.024Z,15.20
2019-03-04T23:01:16.218Z,16.30
2019-03-04T23:03:45.972Z,13.40
2019-03-04T23:06:18.750Z,15.10
2019-03-04T23:08:48.165Z,17.57
2019-03-04T23:11:17.797Z,14.03
2019-03-04T23:13:56.581Z,14.20
2019-03-04T23:16:28.528Z,15.33
2019-03-04T23:18:57.930Z,17.53
2019-03-04T23:21:27.298Z,21.10
2019-03-04T23:23:56.673Z,14.67
2019-03-04T23:26:26.275Z,14.97
2019-03-04T23:28:55.630Z,15.40
2019-03-04T23:31:24.987Z,13.77
2019-03-04T23:33:54.333Z,14.87
2019-03-04T23:36:23.707Z,12.40
2019-03-04T23:38:53.038Z,12.33
2019-03-04T23:41:22.392Z,16.50
2019-03-04T23:43:51.768Z,14.80
2019-03-04T23:46:21.127Z,16.20
2019-03-04T23:48:50.481Z,13.77
2019-03-04T23:51:19.807Z,15.60
2019-03-04T23:53:49.170Z,15.10
2019-03-04T23:56:18.537Z,13.00
2019-03-04T23:58:47.915Z,13.17
